Time;durP1;ratioP1;P1;durP2;ratioP2;P2;SDS_P1;SDS_P2;PMS_P1;PMS_P2;Temp;Humidity;BMP_temperature;BMP_pressure;BME280_temperature;BME280_humidity;BME280_pressure;Samples;Min_cycle;Max_cycle;Signal;HPM_P1;HPM_P2
2023/04/03 00:00:22;;;;;;;5.80;1.23;;;4.20;99.90;;;;;;4976116;28;20042;-52
2023/04/03 00:02:48;;;;;;;3.63;1.10;;;4.20;99.90;;;;;;4974134;28;20066;-53
2023/04/03 00:05:14;;;;;;;3.63;1.35;;;4.20;99.90;;;;;;4973093;28;20043;-51
2023/04/03 00:07:40;;;;;;;3.53;1.05;;;4.50;99.90;;;;;;4978263;28;20169;-51
2023/04/03 00:10:06;;;;;;;4.95;1.10;;;4.20;99.90;;;;;;4974938;28;20129;-55
2023/04/03 00:12:32;;;;;;;4.38;1.17;;;4.20;99.90;;;;;;4979382;28;20128;-49
2023/04/03 00:14:57;;;;;;;2.80;1.00;;;4.20;99.90;;;;;;4980026;28;20522;-54
2023/04/03 00:17:23;;;;;;;4.35;1.27;;;4.20;99.90;;;;;;4974889;28;20046;-51
2023/04/03 00:19:48;;;;;;;3.38;1.00;;;4.10;99.90;;;;;;4982375;28;20121;-52
2023/04/03 00:22:14;;;;;;;3.08;0.95;;;4.10;99.90;;;;;;4978665;28;20117;-51
2023/04/03 00:24:40;;;;;;;2.95;0.88;;;4.10;99.90;;;;;;4984506;28;20049;-52
2023/04/03 00:27:05;;;;;;;3.08;0.85;;;4.10;99.90;;;;;;4973733;28;20038;-53
2023/04/03 00:29:31;;;;;;;2.63;0.90;;;4.10;99.90;;;;;;4973006;28;20043;-53
2023/04/03 00:31:57;;;;;;;1.90;1.00;;;4.00;99.90;;;;;;4974090;28;20474;-52
2023/04/03 00:34:22;;;;;;;3.22;1.10;;;4.00;99.90;;;;;;4981797;28;20042;-52
2023/04/03 00:36:48;;;;;;;1.60;0.90;;;4.00;99.90;;;;;;4977089;28;20039;-52
2023/04/03 00:39:14;;;;;;;3.55;1.02;;;4.00;99.90;;;;;;4983129;28;20402;-54
2023/04/03 00:41:40;;;;;;;6.82;0.95;;;3.90;99.90;;;;;;4977277;28;20057;-51
2023/04/03 00:44:39;;;;;;;2.83;1.00;;;3.90;99.90;;;;;;4973105;28;20035;-52
2023/04/03 00:47:08;;;;;;;3.05;0.90;;;3.80;99.90;;;;;;4973760;28;20042;-51
2023/04/03 00:49:35;;;;;;;5.10;1.00;;;3.80;99.90;;;;;;4972252;28;20047;-53
2023/04/03 00:52:01;;;;;;;4.93;1.05;;;3.80;99.90;;;;;;4973573;28;20085;-51
2023/04/03 00:54:27;;;;;;;5.68;1.10;;;3.80;99.90;;;;;;4980287;28;20518;-53
2023/04/03 00:56:57;;;;;;;2.88;1.00;;;3.70;99.90;;;;;;4979211;28;20080;-52
2023/04/03 00:59:30;;;;;;;3.28;0.80;;;3.70;99.90;;;;;;4982259;28;20425;-51
2023/04/03 01:01:57;;;;;;;2.80;1.13;;;3.70;99.90;;;;;;4954608;28;20053;-52
2023/04/03 01:04:43;;;;;;;3.97;1.02;;;3.60;99.90;;;;;;4978207;28;20027;-51
2023/04/03 01:07:15;;;;;;;4.45;1.30;;;3.60;99.90;;;;;;4971870;28;20031;-52
2023/04/03 01:09:41;;;;;;;2.58;1.20;;;3.60;99.90;;;;;;4975492;28;20042;-52
2023/04/03 01:12:18;;;;;;;2.30;0.85;;;3.60;99.90;;;;;;4982216;28;20071;-50
2023/04/03 01:14:46;;;;;;;3.60;1.00;;;3.70;99.90;;;;;;4977149;28;20406;-52
2023/04/03 01:17:30;;;;;;;3.28;1.30;;;3.70;99.90;;;;;;4980254;28;20426;-52
2023/04/03 01:20:30;;;;;;;4.15;1.10;;;3.50;99.90;;;;;;4974412;28;20043;-52
2023/04/03 01:23:17;;;;;;;3.88;1.05;;;3.50;99.90;;;;;;4974151;28;20050;-52
2023/04/03 01:25:50;;;;;;;3.65;1.00;;;3.40;99.90;;;;;;4971059;28;20051;-53
2023/04/03 01:28:28;;;;;;;3.33;1.00;;;3.40;99.90;;;;;;4990393;28;20042;-52
2023/04/03 01:31:15;;;;;;;3.50;1.23;;;3.30;99.90;;;;;;4975628;28;20026;-51
2023/04/03 01:33:41;;;;;;;4.03;0.90;;;3.30;99.90;;;;;;4978230;28;20062;-53
2023/04/03 01:36:07;;;;;;;2.88;1.13;;;3.20;99.90;;;;;;4972935;28;20037;-54
2023/04/03 01:38:33;;;;;;;3.35;1.00;;;3.20;99.90;;;;;;4972569;28;20581;-53
2023/04/03 01:40:59;;;;;;;4.03;0.93;;;3.10;99.90;;;;;;4971543;28;20109;-53
2023/04/03 01:43:25;;;;;;;3.85;1.10;;;3.10;99.90;;;;;;4977914;28;20035;-53
2023/04/03 01:45:52;;;;;;;5.85;1.08;;;3.10;99.90;;;;;;4955051;28;20101;-53
2023/04/03 01:48:18;;;;;;;3.92;1.00;;;3.10;99.90;;;;;;4954052;28;20127;-50
2023/04/03 01:50:44;;;;;;;4.47;1.20;;;3.00;99.90;;;;;;4972718;28;20102;-52
2023/04/03 01:53:09;;;;;;;3.17;0.98;;;3.00;99.90;;;;;;4979764;28;20047;-51
2023/04/03 01:55:35;;;;;;;2.08;0.85;;;3.00;99.90;;;;;;4974481;28;20131;-52
2023/04/03 01:58:01;;;;;;;4.85;1.20;;;2.90;99.90;;;;;;4979368;28;20035;-50
2023/04/03 02:00:26;;;;;;;3.75;1.00;;;2.90;99.90;;;;;;4973762;28;20039;-54
2023/04/03 02:02:52;;;;;;;3.75;0.95;;;2.90;99.90;;;;;;4971767;28;20126;-49
2023/04/03 02:05:18;;;;;;;5.13;1.00;;;2.90;99.90;;;;;;4990370;28;20054;-50
2023/04/03 02:07:44;;;;;;;2.80;1.10;;;2.80;99.90;;;;;;4981566;28;20074;-51
2023/04/03 02:10:10;;;;;;;4.22;1.15;;;2.80;99.90;;;;;;4971745;28;20041;-53
2023/04/03 02:12:36;;;;;;;5.47;1.60;;;2.80;99.90;;;;;;4980421;28;20505;-50
2023/04/03 02:15:02;;;;;;;3.55;1.23;;;2.70;99.90;;;;;;4974527;28;20058;-52
2023/04/03 02:17:27;;;;;;;5.22;1.33;;;2.70;99.90;;;;;;4974954;28;20027;-52
2023/04/03 02:19:53;;;;;;;3.15;1.13;;;2.60;99.90;;;;;;4975521;28;21366;-52
2023/04/03 02:22:20;;;;;;;4.60;1.52;;;2.60;99.90;;;;;;4972423;28;20035;-52
2023/04/03 02:24:45;;;;;;;4.97;1.20;;;2.60;99.90;;;;;;4964342;28;20054;-52
2023/04/03 02:27:11;;;;;;;3.22;1.13;;;2.50;99.90;;;;;;4989381;28;20545;-51
2023/04/03 02:29:37;;;;;;;3.30;1.08;;;2.50;99.90;;;;;;4990788;28;20041;-52
2023/04/03 02:32:03;;;;;;;5.50;1.40;;;2.50;99.90;;;;;;4990559;28;20462;-55
2023/04/03 02:34:29;;;;;;;6.05;1.60;;;2.50;99.90;;;;;;4977776;28;20367;-52
2023/04/03 02:36:54;;;;;;;4.35;1.20;;;2.40;99.90;;;;;;4973085;28;20446;-51
2023/04/03 02:39:20;;;;;;;3.33;1.30;;;2.70;99.90;;;;;;4975516;28;20074;-51
2023/04/03 02:41:46;;;;;;;4.38;1.10;;;2.40;99.90;;;;;;4978482;28;20038;-50
2023/04/03 02:44:12;;;;;;;5.45;1.40;;;2.40;99.90;;;;;;4979947;28;20042;-52
2023/04/03 02:46:37;;;;;;;3.22;1.05;;;2.30;99.90;;;;;;4981312;28;20041;-52
2023/04/03 02:49:03;;;;;;;7.43;1.77;;;2.30;99.90;;;;;;4980875;28;20039;-53
2023/04/03 02:51:30;;;;;;;4.85;1.35;;;2.30;99.90;;;;;;4984307;28;20406;-52
2023/04/03 02:53:55;;;;;;;4.40;1.40;;;2.30;99.90;;;;;;4981432;28;20078;-52
2023/04/03 02:56:21;;;;;;;3.60;1.40;;;2.20;99.90;;;;;;4989675;28;20182;-50
2023/04/03 02:58:47;;;;;;;4.32;1.40;;;2.20;99.90;;;;;;4974530;28;20042;-52
2023/04/03 03:01:13;;;;;;;5.50;1.63;;;2.20;99.90;;;;;;4976301;28;20034;-51
2023/04/03 03:03:39;;;;;;;4.90;1.33;;;2.10;99.90;;;;;;4980874;28;20042;-50
2023/04/03 03:06:11;;;;;;;3.78;1.23;;;2.10;99.90;;;;;;4975357;28;20474;-53
2023/04/03 03:08:37;;;;;;;5.97;1.35;;;2.10;99.90;;;;;;4981283;28;20059;-53
2023/04/03 03:11:04;;;;;;;5.90;1.40;;;2.50;99.90;;;;;;4987618;28;20390;-49
2023/04/03 03:13:30;;;;;;;5.90;1.33;;;2.10;99.90;;;;;;4982194;28;20140;-50
2023/04/03 03:15:56;;;;;;;3.50;1.33;;;2.00;99.90;;;;;;4991900;28;20133;-53
2023/04/03 03:18:22;;;;;;;7.20;1.80;;;2.00;99.90;;;;;;4993416;28;20165;-53
2023/04/03 03:20:55;;;;;;;4.93;1.40;;;1.90;99.90;;;;;;4981311;28;20041;-52
2023/04/03 03:23:23;;;;;;;5.00;1.63;;;2.00;99.90;;;;;;4975740;28;20035;-53
2023/04/03 03:25:48;;;;;;;3.67;1.33;;;2.00;99.90;;;;;;4981124;28;20049;-52
2023/04/03 03:28:14;;;;;;;9.35;1.70;;;1.90;99.90;;;;;;4980415;28;20396;-54
2023/04/03 03:30:40;;;;;;;3.75;1.33;;;1.90;99.90;;;;;;4974506;28;20038;-53
2023/04/03 03:33:06;;;;;;;4.20;1.77;;;1.90;99.90;;;;;;4956600;28;20130;-52
2023/04/03 03:35:32;;;;;;;3.45;1.38;;;1.90;99.90;;;;;;4984867;28;20101;-52
2023/04/03 03:37:58;;;;;;;4.43;1.58;;;1.90;99.90;;;;;;4980061;28;20050;-53
2023/04/03 03:40:24;;;;;;;5.13;1.40;;;1.90;99.90;;;;;;4974986;28;20039;-52
2023/04/03 03:42:49;;;;;;;5.13;1.60;;;1.80;99.90;;;;;;4974506;28;20038;-51
2023/04/03 03:45:15;;;;;;;3.70;1.30;;;1.80;99.90;;;;;;4976149;28;20138;-55
2023/04/03 03:47:41;;;;;;;5.80;1.60;;;1.80;99.90;;;;;;4980090;28;20046;-53
2023/04/03 03:50:07;;;;;;;4.03;1.40;;;1.80;99.90;;;;;;4976257;28;20039;-51
2023/04/03 03:52:33;;;;;;;6.60;2.50;;;1.70;99.90;;;;;;4957781;28;20054;-50
2023/04/03 03:54:58;;;;;;;6.30;1.52;;;1.70;99.90;;;;;;4974199;28;20035;-53
2023/04/03 03:57:26;;;;;;;4.75;1.48;;;1.70;99.90;;;;;;4975291;28;20038;-53
2023/04/03 03:59:52;;;;;;;3.95;1.70;;;1.70;99.90;;;;;;4967703;28;20093;-55
2023/04/03 04:02:18;;;;;;;6.70;1.25;;;1.60;99.90;;;;;;4956014;28;20062;-50
2023/04/03 04:04:43;;;;;;;6.22;1.50;;;1.60;99.90;;;;;;4992661;28;20096;-52
2023/04/03 04:07:09;;;;;;;5.75;2.03;;;1.60;99.90;;;;;;4982530;28;20394;-52
2023/04/03 04:09:35;;;;;;;4.97;1.65;;;1.60;99.90;;;;;;4957655;28;20126;-53
2023/04/03 04:12:01;;;;;;;5.43;1.60;;;1.60;99.90;;;;;;4972877;28;20043;-50
2023/04/03 04:14:26;;;;;;;10.35;1.70;;;1.50;99.90;;;;;;4980724;28;20062;-52
2023/04/03 04:16:52;;;;;;;7.32;1.73;;;1.50;99.90;;;;;;4981151;28;20054;-52
2023/04/03 04:19:18;;;;;;;5.55;1.83;;;1.50;99.90;;;;;;4974327;28;20058;-54
2023/04/03 04:21:43;;;;;;;4.75;1.60;;;1.50;99.90;;;;;;4981974;28;20119;-51
2023/04/03 04:24:09;;;;;;;6.22;1.77;;;1.40;99.90;;;;;;4977885;28;20042;-52
2023/04/03 04:26:35;;;;;;;5.32;1.63;;;1.40;99.90;;;;;;4972990;28;20039;-53
2023/04/03 04:29:00;;;;;;;4.22;1.65;;;1.30;99.90;;;;;;4991868;28;20042;-52
2023/04/03 04:31:26;;;;;;;5.57;1.73;;;1.30;99.90;;;;;;4983033;28;20130;-52
2023/04/03 04:33:52;;;;;;;4.20;1.73;;;1.30;99.90;;;;;;4973306;28;20042;-52
2023/04/03 04:36:18;;;;;;;3.53;1.73;;;1.20;99.90;;;;;;4981927;28;20046;-49
2023/04/03 04:38:44;;;;;;;7.35;2.25;;;1.20;99.90;;;;;;4976875;28;20065;-52
2023/04/03 04:41:10;;;;;;;5.28;1.60;;;1.20;99.90;;;;;;4975284;28;20041;-50
2023/04/03 04:43:36;;;;;;;4.30;1.60;;;1.10;99.90;;;;;;4972155;28;20047;-53
2023/04/03 04:46:06;;;;;;;5.95;1.70;;;1.10;99.90;;;;;;4983138;28;20037;-54
2023/04/03 04:48:33;;;;;;;8.23;1.58;;;1.10;99.90;;;;;;4973920;28;20105;-52
2023/04/03 04:50:58;;;;;;;5.32;1.60;;;1.10;99.90;;;;;;4973576;28;20548;-54
2023/04/03 04:53:24;;;;;;;5.18;1.63;;;1.10;99.90;;;;;;4977382;28;20078;-50
2023/04/03 04:55:51;;;;;;;5.40;1.95;;;1.00;99.90;;;;;;4991647;28;20605;-54
2023/04/03 04:58:17;;;;;;;5.18;1.60;;;1.00;99.90;;;;;;4975854;28;20046;-50
2023/04/03 05:00:43;;;;;;;5.25;1.83;;;1.10;99.90;;;;;;4972172;28;20367;-55
2023/04/03 05:03:09;;;;;;;4.88;1.90;;;1.00;99.90;;;;;;4975378;28;20062;-52
2023/04/03 05:05:35;;;;;;;5.82;1.70;;;0.90;99.90;;;;;;4981396;28;20573;-52
2023/04/03 05:08:02;;;;;;;6.40;1.80;;;0.90;99.90;;;;;;4974610;28;20110;-53
2023/04/03 05:10:27;;;;;;;4.95;1.67;;;0.90;99.90;;;;;;4972099;28;20050;-52
2023/04/03 05:12:53;;;;;;;11.32;1.95;;;0.80;99.90;;;;;;4974364;28;20587;-53
2023/04/03 05:15:19;;;;;;;6.72;1.77;;;0.80;99.90;;;;;;4946227;28;20058;-52
2023/04/03 05:17:44;;;;;;;6.38;1.73;;;0.80;99.90;;;;;;4986491;28;20042;-49
2023/04/03 05:20:10;;;;;;;5.93;1.80;;;0.70;99.90;;;;;;4971814;28;20046;-53
2023/04/03 05:22:36;;;;;;;4.28;1.90;;;0.80;99.90;;;;;;4975653;28;20710;-53
2023/04/03 05:25:02;;;;;;;7.03;2.00;;;0.70;99.90;;;;;;4972185;28;20066;-51
2023/04/03 05:27:28;;;;;;;5.32;1.40;;;0.70;99.90;;;;;;4972329;28;20036;-53
2023/04/03 05:29:55;;;;;;;6.65;1.70;;;0.70;99.90;;;;;;4981042;28;20379;-55
2023/04/03 05:32:21;;;;;;;4.45;1.50;;;0.70;99.90;;;;;;4980488;28;20034;-53
2023/04/03 05:34:47;;;;;;;5.70;1.95;;;0.60;99.90;;;;;;4975675;28;20038;-53
2023/04/03 05:37:13;;;;;;;8.70;1.92;;;0.60;99.90;;;;;;4959357;28;20042;-55
2023/04/03 05:39:40;;;;;;;6.00;2.10;;;0.60;99.90;;;;;;4967350;28;20049;-52
2023/04/03 05:42:06;;;;;;;7.78;1.80;;;0.60;99.90;;;;;;4979209;28;20050;-51
2023/04/03 05:44:32;;;;;;;5.60;1.88;;;0.60;99.90;;;;;;4989733;28;20620;-53
2023/04/03 05:46:58;;;;;;;9.93;2.20;;;0.70;99.90;;;;;;4981854;28;20125;-53
2023/04/03 05:49:24;;;;;;;4.50;1.70;;;0.60;99.90;;;;;;4972796;28;20074;-53
2023/04/03 05:51:51;;;;;;;8.65;1.63;;;0.70;99.90;;;;;;4971715;28;20102;-53
2023/04/03 05:54:28;;;;;;;4.55;1.92;;;0.70;99.90;;;;;;4976716;28;20137;-51
2023/04/03 05:56:53;;;;;;;5.80;1.77;;;0.70;99.90;;;;;;4980737;28;20100;-54
2023/04/03 05:59:19;;;;;;;6.32;1.80;;;0.70;99.90;;;;;;4989265;28;20086;-53
2023/04/03 06:01:46;;;;;;;5.65;2.20;;;0.80;99.90;;;;;;4980962;28;20042;-52
2023/04/03 06:04:13;;;;;;;6.38;1.92;;;0.90;99.90;;;;;;4972256;28;20061;-52
2023/04/03 06:06:53;;;;;;;6.55;2.17;;;0.90;99.90;;;;;;4955311;28;20391;-54
2023/04/03 06:09:24;;;;;;;7.57;2.05;;;1.00;99.90;;;;;;4973884;28;20061;-52
2023/04/03 06:11:51;;;;;;;3.13;1.70;;;1.00;99.90;;;;;;4978548;28;20054;-55
2023/04/03 06:14:16;;;;;;;5.20;1.90;;;1.20;99.90;;;;;;4985865;28;20074;-53
2023/04/03 06:16:43;;;;;;;7.00;1.80;;;1.20;99.90;;;;;;4981677;28;20402;-52
2023/04/03 06:19:09;;;;;;;4.57;1.90;;;1.20;99.90;;;;;;4976258;28;20043;-53
2023/04/03 06:21:35;;;;;;;7.28;1.60;;;1.30;99.90;;;;;;4981518;28;20071;-51
2023/04/03 06:24:03;;;;;;;8.00;1.85;;;1.30;99.90;;;;;;4976406;28;20127;-54
2023/04/03 06:26:28;;;;;;;6.28;1.88;;;1.30;99.90;;;;;;4973832;28;20038;-53
2023/04/03 06:28:54;;;;;;;4.20;1.77;;;1.40;99.90;;;;;;4982981;28;20046;-53
2023/04/03 06:31:20;;;;;;;5.25;2.10;;;1.40;99.90;;;;;;4962330;28;20093;-50
2023/04/03 06:33:46;;;;;;;3.75;1.77;;;1.50;99.90;;;;;;4958776;28;20074;-49
2023/04/03 06:36:12;;;;;;;9.25;2.13;;;1.50;99.90;;;;;;4981428;28;20035;-51
2023/04/03 06:38:38;;;;;;;8.30;2.00;;;1.60;99.90;;;;;;4979434;28;20134;-51
2023/04/03 06:41:04;;;;;;;7.72;1.80;;;1.70;99.90;;;;;;4975254;28;20042;-54
2023/04/03 06:43:31;;;;;;;4.95;1.83;;;1.60;99.90;;;;;;4979381;28;20039;-50
2023/04/03 06:45:57;;;;;;;8.35;1.50;;;1.70;99.90;;;;;;4985128;28;20100;-51
2023/04/03 06:48:23;;;;;;;7.53;1.73;;;1.70;99.90;;;;;;4977452;28;20078;-53
2023/04/03 06:50:48;;;;;;;5.60;1.85;;;1.80;99.90;;;;;;4975065;28;20026;-54
2023/04/03 06:53:14;;;;;;;7.18;1.98;;;1.80;99.90;;;;;;4977463;28;20046;-51
2023/04/03 06:55:41;;;;;;;5.22;2.10;;;1.90;99.90;;;;;;4961345;28;20561;-51
2023/04/03 06:58:06;;;;;;;7.13;1.80;;;1.90;99.90;;;;;;4975813;28;20061;-50
2023/04/03 07:00:32;;;;;;;8.40;1.80;;;2.00;99.90;;;;;;4975507;28;20481;-52
2023/04/03 07:02:58;;;;;;;5.43;1.70;;;2.00;99.90;;;;;;4971134;28;20271;-52
2023/04/03 07:05:25;;;;;;;8.00;1.88;;;2.10;99.90;;;;;;4969989;28;20123;-53
2023/04/03 07:07:51;;;;;;;5.53;1.88;;;2.20;99.90;;;;;;4968367;28;20477;-53
2023/04/03 07:10:17;;;;;;;6.07;1.60;;;2.20;99.90;;;;;;4968895;28;20038;-52
2023/04/03 07:12:43;;;;;;;6.97;1.70;;;2.30;99.90;;;;;;4968998;28;20040;-50
2023/04/03 07:15:09;;;;;;;6.95;1.88;;;2.30;99.90;;;;;;4979973;28;20054;-53
2023/04/03 07:17:36;;;;;;;10.20;1.92;;;2.40;99.90;;;;;;4983464;28;20038;-53
2023/04/03 07:20:03;;;;;;;8.10;2.20;;;2.40;99.90;;;;;;4976949;28;20105;-50
2023/04/03 07:22:30;;;;;;;5.45;1.45;;;2.50;99.90;;;;;;4985096;28;20050;-52
2023/04/03 07:24:55;;;;;;;7.05;1.52;;;2.60;99.90;;;;;;4987041;28;20121;-51
2023/04/03 07:27:21;;;;;;;4.78;1.70;;;2.60;99.90;;;;;;4985045;28;20453;-55
2023/04/03 07:29:48;;;;;;;5.97;1.50;;;2.70;99.90;;;;;;4968574;28;20113;-51
2023/04/03 07:32:15;;;;;;;5.22;1.40;;;2.90;99.90;;;;;;4974495;28;20382;-52
2023/04/03 07:34:41;;;;;;;6.13;1.58;;;2.80;99.90;;;;;;4978672;28;20050;-52
2023/04/03 07:37:08;;;;;;;8.00;1.67;;;2.80;99.90;;;;;;4965465;28;20045;-55
2023/04/03 07:39:34;;;;;;;4.78;1.48;;;2.30;99.90;;;;;;4975510;28;20101;-55
2023/04/03 07:42:01;;;;;;;6.70;1.38;;;3.00;99.90;;;;;;4982298;28;20105;-52
2023/04/03 07:44:27;;;;;;;3.40;1.35;;;3.00;99.90;;;;;;4987481;28;20047;-53
2023/04/03 07:46:53;;;;;;;5.75;1.38;;;3.10;99.90;;;;;;4973261;28;20465;-54
2023/04/03 07:49:19;;;;;;;6.07;1.15;;;3.10;99.90;;;;;;4989384;28;20038;-53
2023/04/03 07:51:45;;;;;;;6.13;1.40;;;3.30;99.90;;;;;;4973178;28;20047;-52
2023/04/03 07:54:10;;;;;;;5.82;1.35;;;3.30;99.90;;;;;;4963918;28;20054;-52
2023/04/03 07:56:36;;;;;;;4.57;1.20;;;3.50;99.90;;;;;;4981683;28;20046;-52
2023/04/03 07:59:02;;;;;;;4.15;1.05;;;4.20;99.90;;;;;;4974949;28;20053;-54
2023/04/03 08:01:28;;;;;;;6.80;1.35;;;3.60;99.90;;;;;;4984672;28;20467;-51
2023/04/03 08:03:54;;;;;;;5.45;1.30;;;3.70;99.90;;;;;;4977779;28;20066;-54
2023/04/03 08:06:19;;;;;;;4.30;1.13;;;3.80;99.90;;;;;;4974040;28;20505;-53
2023/04/03 08:08:45;;;;;;;8.73;1.40;;;3.80;99.90;;;;;;4977371;28;20054;-51
2023/04/03 08:11:12;;;;;;;3.65;1.38;;;3.90;99.90;;;;;;4990375;28;20125;-54
2023/04/03 08:13:37;;;;;;;5.18;1.23;;;4.00;99.90;;;;;;4974967;28;20043;-54
2023/04/03 08:16:11;;;;;;;4.28;1.35;;;4.10;99.90;;;;;;4973122;28;20065;-52
2023/04/03 08:18:38;;;;;;;5.45;1.08;;;4.20;99.90;;;;;;4974968;28;20426;-51
2023/04/03 08:21:11;;;;;;;3.50;1.27;;;4.30;99.90;;;;;;4974041;28;20042;-53
2023/04/03 08:23:39;;;;;;;7.22;1.60;;;4.30;99.90;;;;;;4974306;28;20042;-54
2023/04/03 08:26:13;;;;;;;4.40;1.23;;;5.10;99.90;;;;;;4975036;28;20039;-55
2023/04/03 08:28:40;;;;;;;3.45;1.40;;;4.50;99.90;;;;;;4975777;28;20038;-56
2023/04/03 08:31:10;;;;;;;4.63;0.98;;;4.50;99.90;;;;;;4985721;28;20590;-52
2023/04/03 08:33:36;;;;;;;3.70;1.17;;;4.60;99.90;;;;;;4973283;28;20054;-53
2023/04/03 08:36:07;;;;;;;3.42;0.90;;;4.70;99.90;;;;;;4978697;28;20074;-54
2023/04/03 08:38:36;;;;;;;3.65;0.80;;;4.80;99.90;;;;;;4984543;28;20047;-52
2023/04/03 08:41:36;;;;;;;2.75;1.05;;;4.80;99.90;;;;;;4978751;28;20031;-51
2023/04/03 08:44:10;;;;;;;4.25;1.10;;;5.00;99.90;;;;;;4979139;28;20027;-51
2023/04/03 08:47:08;;;;;;;2.20;0.90;;;5.10;99.90;;;;;;4964665;28;20150;-54
2023/04/03 08:50:11;;;;;;;3.78;1.10;;;5.20;99.90;;;;;;4966192;28;20494;-52
2023/04/03 08:52:41;;;;;;;3.85;0.93;;;5.30;99.90;;;;;;4956620;28;20058;-52
2023/04/03 08:55:22;;;;;;;4.65;0.93;;;5.70;99.90;;;;;;4980309;28;20038;-52
2023/04/03 08:57:50;;;;;;;3.00;0.80;;;5.50;99.90;;;;;;4983508;28;20125;-53
2023/04/03 09:00:20;;;;;;;2.25;0.73;;;5.90;99.90;;;;;;4976470;28;20533;-52
2023/04/03 09:02:47;;;;;;;3.50;0.80;;;5.70;99.90;;;;;;4980886;28;20129;-55
2023/04/03 09:05:16;;;;;;;2.95;0.70;;;5.90;99.90;;;;;;4982535;28;20035;-51
2023/04/03 09:07:45;;;;;;;5.50;1.02;;;6.00;99.90;;;;;;4972287;28;20030;-53
2023/04/03 09:10:14;;;;;;;4.63;0.75;;;6.10;99.90;;;;;;4981539;28;20046;-54
2023/04/03 09:12:46;;;;;;;3.22;0.90;;;6.20;99.90;;;;;;4978435;28;20481;-55
2023/04/03 09:15:17;;;;;;;4.10;0.95;;;6.60;99.90;;;;;;4982783;28;20077;-52
2023/04/03 09:18:10;;;;;;;3.90;0.90;;;6.40;99.90;;;;;;4972170;28;20510;-54
2023/04/03 09:20:45;;;;;;;3.80;0.80;;;6.60;99.90;;;;;;4981038;28;20042;-52
2023/04/03 09:23:26;;;;;;;3.30;0.82;;;7.00;99.90;;;;;;4978826;28;20039;-53
2023/04/03 09:26:01;;;;;;;2.72;0.82;;;6.90;99.90;;;;;;4960845;28;20027;-55
2023/04/03 09:28:30;;;;;;;5.40;1.00;;;6.90;99.90;;;;;;4973205;28;20035;-55
2023/04/03 09:30:55;;;;;;;2.90;0.95;;;7.00;99.90;;;;;;4959175;28;20049;-51
2023/04/03 09:33:22;;;;;;;3.97;0.80;;;7.10;99.90;;;;;;4970777;28;20034;-54
2023/04/03 09:35:49;;;;;;;3.60;0.90;;;7.20;99.90;;;;;;4983379;28;20482;-50
2023/04/03 09:38:22;;;;;;;2.70;0.90;;;7.30;99.90;;;;;;4982322;28;20039;-53
2023/04/03 09:41:16;;;;;;;2.47;0.60;;;7.40;99.90;;;;;;4972035;28;20070;-52
2023/04/03 09:43:52;;;;;;;;;;;7.50;99.90;;;;;;4974315;28;20165;-55
2023/04/03 09:46:32;;;;;;;1.88;0.63;;;7.60;99.90;;;;;;4982414;28;19918;-50
2023/04/03 09:49:04;;;;;;;3.13;0.60;;;7.70;99.90;;;;;;4986674;28;20046;-54
2023/04/03 09:51:30;;;;;;;3.60;0.70;;;7.70;99.90;;;;;;4992904;28;20042;-54
2023/04/03 09:53:57;;;;;;;4.50;0.80;;;7.70;99.90;;;;;;4979890;28;20383;-53
2023/04/03 09:56:25;;;;;;;1.67;0.47;;;7.70;99.90;;;;;;4979687;28;20545;-53
2023/04/03 09:59:08;;;;;;;2.13;0.52;;;7.80;99.90;;;;;;4978459;28;20126;-53
2023/04/03 10:01:37;;;;;;;1.67;0.50;;;7.90;99.90;;;;;;4985502;28;20514;-49
2023/04/03 10:04:17;;;;;;;1.85;0.57;;;7.90;99.90;;;;;;4978170;28;20035;-54
2023/04/03 10:06:54;;;;;;;3.60;0.70;;;7.70;98.80;;;;;;4961657;28;20038;-51
2023/04/03 10:09:23;;;;;;;2.83;0.75;;;7.70;98.90;;;;;;4989664;28;20039;-50
2023/04/03 10:12:08;;;;;;;2.97;0.80;;;7.60;98.80;;;;;;4978781;28;20039;-54
2023/04/03 10:14:39;;;;;;;2.70;0.90;;;7.70;97.80;;;;;;4991015;28;20042;-52
2023/04/03 10:17:49;;;;;;;2.08;0.70;;;7.70;98.90;;;;;;4979234;28;20051;-55
2023/04/03 10:20:33;;;;;;;3.42;0.75;;;7.80;98.00;;;;;;4980752;28;20034;-54
2023/04/03 10:23:21;;;;;;;2.80;0.50;;;7.90;98.70;;;;;;4980587;28;20053;-53
2023/04/03 10:26:10;;;;;;;1.92;0.60;;;8.00;97.90;;;;;;4983119;28;20031;-55
2023/04/03 10:28:52;;;;;;;2.75;0.55;;;8.10;98.30;;;;;;4986787;28;20548;-53
2023/04/03 10:31:40;;;;;;;2.30;0.68;;;8.10;98.60;;;;;;4982305;28;20049;-56
2023/04/03 10:34:37;;;;;;;3.88;0.82;;;8.10;98.90;;;;;;4978364;28;20544;-52
2023/04/03 10:37:21;;;;;;;3.42;0.90;;;8.20;99.10;;;;;;4973762;28;20046;-53
2023/04/03 10:39:53;;;;;;;;;;;8.40;98.80;;;;;;4971956;28;22840;-51
2023/04/03 10:42:46;;;;;;;2.65;0.70;;;8.50;97.90;;;;;;4970690;28;20397;-53
2023/04/03 10:45:19;;;;;;;2.65;1.02;;;8.60;99.00;;;;;;4974236;28;20039;-51
2023/04/03 10:48:01;;;;;;;2.77;0.70;;;8.80;99.70;;;;;;4974583;28;20114;-55
2023/04/03 10:50:26;;;;;;;3.45;0.70;;;8.90;99.40;;;;;;4976420;28;20278;-53
2023/04/03 10:52:57;;;;;;;3.97;0.70;;;9.00;99.90;;;;;;4959733;28;20085;-54
2023/04/03 10:55:26;;;;;;;3.95;1.05;;;9.00;98.60;;;;;;4974968;28;20129;-52
2023/04/03 10:57:56;;;;;;;2.17;0.75;;;9.10;99.30;;;;;;4975808;28;20039;-55
2023/04/03 11:00:45;;;;;;;2.33;0.70;;;9.20;99.00;;;;;;4969930;28;20483;-53
2023/04/03 11:03:22;;;;;;;2.58;0.80;;;9.30;98.50;;;;;;4968756;28;20041;-55
2023/04/03 11:05:53;;;;;;;2.65;0.77;;;9.50;99.00;;;;;;4980334;28;20047;-52
2023/04/03 11:08:26;;;;;;;2.97;0.90;;;9.50;98.60;;;;;;4954586;28;20478;-54
2023/04/03 11:10:56;;;;;;;2.92;1.10;;;9.50;97.40;;;;;;4972091;28;20493;-55
2023/04/03 11:13:32;;;;;;;3.83;1.02;;;9.50;97.70;;;;;;4972220;28;20486;-55
2023/04/03 11:15:58;;;;;;;3.67;0.90;;;9.60;97.70;;;;;;4980476;28;20046;-54
2023/04/03 11:18:35;;;;;;;2.45;0.77;;;9.70;98.20;;;;;;4979061;28;20054;-55
2023/04/03 11:21:13;;;;;;;4.53;0.98;;;9.90;97.60;;;;;;4977629;28;20482;-53
2023/04/03 11:23:40;;;;;;;2.35;0.90;;;10.10;97.10;;;;;;4979764;28;20039;-51
2023/04/03 11:26:13;;;;;;;3.92;1.00;;;10.30;97.40;;;;;;4982332;28;20122;-54
2023/04/03 11:28:39;;;;;;;2.63;0.88;;;10.40;97.10;;;;;;4977095;28;20414;-51
2023/04/03 11:31:33;;;;;;;3.50;0.88;;;10.60;97.30;;;;;;4975456;28;20138;-55
2023/04/03 11:34:13;;;;;;;3.88;0.93;;;10.80;96.70;;;;;;4988712;28;20049;-53
2023/04/03 11:37:00;;;;;;;5.30;1.20;;;10.90;96.50;;;;;;4959721;28;20042;-54
2023/04/03 11:39:33;;;;;;;3.20;0.93;;;11.00;94.70;;;;;;4974305;28;20147;-54
2023/04/03 11:42:38;;;;;;;2.58;0.73;;;11.00;96.00;;;;;;4980581;28;20050;-55
2023/04/03 11:45:23;;;;;;;2.67;0.90;;;11.00;95.00;;;;;;4980757;28;20050;-55
2023/04/03 11:48:01;;;;;;;3.65;1.00;;;11.10;95.50;;;;;;4979139;28;20050;-54
2023/04/03 11:50:42;;;;;;;3.70;1.25;;;11.10;94.70;;;;;;4976054;28;20039;-54
2023/04/03 11:53:08;;;;;;;4.68;0.95;;;11.10;94.70;;;;;;4982129;28;20070;-55
2023/04/03 11:55:34;;;;;;;4.40;1.02;;;11.20;95.40;;;;;;4975896;28;20062;-50
2023/04/03 11:58:03;;;;;;;2.35;0.80;;;11.30;94.80;;;;;;4978240;28;20035;-51
2023/04/03 12:00:46;;;;;;;3.25;1.00;;;11.40;94.60;;;;;;4979293;28;20394;-57
2023/04/03 12:03:27;;;;;;;2.92;1.00;;;11.60;94.30;;;;;;4984102;28;20125;-52
2023/04/03 12:06:17;;;;;;;5.10;1.08;;;11.70;94.20;;;;;;4975615;28;20121;-50
2023/04/03 12:08:50;;;;;;;2.75;1.10;;;11.80;94.50;;;;;;4979098;28;20042;-53
2023/04/03 12:11:29;;;;;;;2.72;0.80;;;11.80;93.20;;;;;;4972598;28;20137;-53
2023/04/03 12:13:55;;;;;;;3.13;0.90;;;11.80;92.60;;;;;;4976238;28;20062;-52
2023/04/03 12:16:22;;;;;;;3.55;0.90;;;11.80;94.00;;;;;;4980517;28;20062;-53
2023/04/03 12:18:58;;;;;;;3.17;0.85;;;12.00;94.10;;;;;;4972885;28;20470;-52
2023/04/03 12:21:35;;;;;;;2.72;0.95;;;12.20;93.60;;;;;;4972991;28;20058;-48
2023/04/03 12:24:04;;;;;;;3.92;0.70;;;12.30;93.90;;;;;;4974630;28;20066;-52
2023/04/03 12:26:49;;;;;;;2.90;0.80;;;12.40;94.20;;;;;;4979164;28;20426;-54
2023/04/03 12:29:33;;;;;;;3.65;0.90;;;12.60;93.00;;;;;;4982384;28;20035;-53
2023/04/03 12:32:37;;;;;;;2.42;0.70;;;12.70;92.80;;;;;;4974763;28;20397;-53
2023/04/03 12:35:35;;;;;;;1.95;0.90;;;12.80;92.40;;;;;;4973207;28;20074;-54
2023/04/03 12:38:27;;;;;;;3.63;0.85;;;12.90;92.30;;;;;;4974644;28;20100;-54
2023/04/03 12:41:27;;;;;;;3.35;0.90;;;13.00;91.90;;;;;;4981060;28;20046;-53
2023/04/03 12:44:20;;;;;;;3.08;0.90;;;13.10;91.60;;;;;;4972360;28;20049;-55
2023/04/03 12:46:49;;;;;;;3.22;0.90;;;13.30;91.50;;;;;;4955862;28;20043;-54
2023/04/03 12:49:38;;;;;;;2.25;0.75;;;13.20;91.60;;;;;;4977991;28;20500;-52
2023/04/03 12:52:27;;;;;;;3.33;0.77;;;13.30;91.00;;;;;;4973573;28;20057;-54
2023/04/03 12:54:53;;;;;;;2.00;0.70;;;13.40;90.80;;;;;;4951228;28;20061;-54
2023/04/03 12:57:29;;;;;;;3.15;0.90;;;13.40;92.00;;;;;;4975130;28;20030;-53
2023/04/03 12:59:56;;;;;;;3.30;0.90;;;13.50;91.90;;;;;;4973001;28;20446;-53
2023/04/03 13:02:30;;;;;;;2.45;0.65;;;13.60;91.50;;;;;;4941867;28;20035;-50
2023/04/03 13:05:05;;;;;;;2.15;0.77;;;13.60;91.30;;;;;;4981343;28;20405;-53
2023/04/03 13:07:34;;;;;;;3.03;0.80;;;13.70;91.20;;;;;;4973255;28;20434;-54
2023/04/03 13:10:15;;;;;;;3.67;1.00;;;13.90;91.20;;;;;;4976281;28;20137;-51
2023/04/03 13:13:08;;;;;;;2.30;0.77;;;14.00;89.80;;;;;;4985219;28;20035;-54